sensor_id;sensor_type;location;lat;lon;timestamp;P1;durP1;ratioP1;P2;durP2;ratioP2
48999;SDS011;34808;48.144;17.158;2022-10-31T00:01:59;18.02;;;13.48;;
48999;SDS011;34808;48.144;17.158;2022-10-31T00:04:25;21.10;;;14.02;;
48999;SDS011;34808;48.144;17.158;2022-10-31T00:06:50;18.67;;;14.23;;
48999;SDS011;34808;48.144;17.158;2022-10-31T00:09:15;20.88;;;13.95;;
48999;SDS011;34808;48.144;17.158;2022-10-31T00:11:40;17.52;;;13.23;;
48999;SDS011;34808;48.144;17.158;2022-10-31T00:14:06;17.75;;;12.75;;
48999;SDS011;34808;48.144;17.158;2022-10-31T00:16:32;15.55;;;11.77;;
48999;SDS011;34808;48.144;17.158;2022-10-31T00:18:58;18.95;;;13.50;;
48999;SDS011;34808;48.144;17.158;2022-10-31T00:21:25;17.40;;;12.45;;
48999;SDS011;34808;48.144;17.158;2022-10-31T00:23:51;16.77;;;12.13;;
48999;SDS011;34808;48.144;17.158;2022-10-31T00:26:17;17.92;;;12.32;;
48999;SDS011;34808;48.144;17.158;2022-10-31T00:28:43;19.55;;;13.43;;
48999;SDS011;34808;48.144;17.158;2022-10-31T00:31:09;18.40;;;13.32;;
48999;SDS011;34808;48.144;17.158;2022-10-31T00:33:36;21.73;;;14.43;;
48999;SDS011;34808;48.144;17.158;2022-10-31T00:36:03;19.15;;;13.68;;
48999;SDS011;34808;48.144;17.158;2022-10-31T00:38:29;18.15;;;13.02;;
48999;SDS011;34808;48.144;17.158;2022-10-31T00:40:55;19.15;;;13.18;;
48999;SDS011;34808;48.144;17.158;2022-10-31T00:43:20;17.67;;;12.75;;
48999;SDS011;34808;48.144;17.158;2022-10-31T00:45:46;17.40;;;12.85;;
48999;SDS011;34808;48.144;17.158;2022-10-31T00:48:11;16.38;;;12.55;;
48999;SDS011;34808;48.144;17.158;2022-10-31T00:50:37;19.23;;;13.35;;
48999;SDS011;34808;48.144;17.158;2022-10-31T00:53:03;19.15;;;12.75;;
48999;SDS011;34808;48.144;17.158;2022-10-31T00:55:28;17.85;;;13.35;;
48999;SDS011;34808;48.144;17.158;2022-10-31T00:57:54;17.70;;;12.13;;
48999;SDS011;34808;48.144;17.158;2022-10-31T01:00:19;17.65;;;13.02;;
48999;SDS011;34808;48.144;17.158;2022-10-31T01:02:45;16.30;;;12.85;;
48999;SDS011;34808;48.144;17.158;2022-10-31T01:05:10;15.52;;;11.68;;
48999;SDS011;34808;48.144;17.158;2022-10-31T01:07:36;15.13;;;12.60;;
48999;SDS011;34808;48.144;17.158;2022-10-31T01:10:03;19.15;;;12.60;;
48999;SDS011;34808;48.144;17.158;2022-10-31T01:12:29;17.05;;;12.45;;
48999;SDS011;34808;48.144;17.158;2022-10-31T01:14:54;17.00;;;13.18;;
48999;SDS011;34808;48.144;17.158;2022-10-31T01:17:20;19.05;;;13.13;;
48999;SDS011;34808;48.144;17.158;2022-10-31T01:19:45;18.88;;;13.05;;
48999;SDS011;34808;48.144;17.158;2022-10-31T01:22:10;17.02;;;12.98;;
48999;SDS011;34808;48.144;17.158;2022-10-31T01:24:36;17.50;;;12.30;;
48999;SDS011;34808;48.144;17.158;2022-10-31T01:27:01;16.92;;;12.57;;
48999;SDS011;34808;48.144;17.158;2022-10-31T01:29:27;16.48;;;12.57;;
48999;SDS011;34808;48.144;17.158;2022-10-31T01:31:52;16.85;;;13.00;;
48999;SDS011;34808;48.144;17.158;2022-10-31T01:34:18;18.60;;;13.32;;
48999;SDS011;34808;48.144;17.158;2022-10-31T01:36:44;18.27;;;13.73;;
48999;SDS011;34808;48.144;17.158;2022-10-31T01:39:13;15.82;;;11.27;;
48999;SDS011;34808;48.144;17.158;2022-10-31T01:41:44;18.77;;;12.68;;
48999;SDS011;34808;48.144;17.158;2022-10-31T01:46:50;16.80;;;12.15;;
48999;SDS011;34808;48.144;17.158;2022-10-31T01:49:21;16.48;;;12.77;;
48999;SDS011;34808;48.144;17.158;2022-10-31T01:52:36;17.40;;;12.05;;
48999;SDS011;34808;48.144;17.158;2022-10-31T01:54:48;22.15;;;13.10;;
48999;SDS011;34808;48.144;17.158;2022-10-31T01:57:18;20.08;;;12.88;;
48999;SDS011;34808;48.144;17.158;2022-10-31T01:59:47;17.95;;;12.45;;
48999;SDS011;34808;48.144;17.158;2022-10-31T02:02:17;15.68;;;11.05;;
48999;SDS011;34808;48.144;17.158;2022-10-31T02:04:44;15.23;;;11.65;;
48999;SDS011;34808;48.144;17.158;2022-10-31T02:07:12;15.00;;;10.70;;
48999;SDS011;34808;48.144;17.158;2022-10-31T02:09:41;16.48;;;10.95;;
48999;SDS011;34808;48.144;17.158;2022-10-31T02:12:08;14.50;;;11.32;;
48999;SDS011;34808;48.144;17.158;2022-10-31T02:14:35;15.75;;;12.48;;
48999;SDS011;34808;48.144;17.158;2022-10-31T02:17:02;18.27;;;12.25;;
48999;SDS011;34808;48.144;17.158;2022-10-31T02:19:51;19.02;;;11.75;;
48999;SDS011;34808;48.144;17.158;2022-10-31T02:22:37;16.95;;;11.95;;
48999;SDS011;34808;48.144;17.158;2022-10-31T02:33:41;15.20;;;12.18;;
48999;SDS011;34808;48.144;17.158;2022-10-31T02:36:16;15.95;;;11.45;;
48999;SDS011;34808;48.144;17.158;2022-10-31T02:42:14;15.48;;;10.57;;
48999;SDS011;34808;48.144;17.158;2022-10-31T02:47:29;15.15;;;10.48;;
48999;SDS011;34808;48.144;17.158;2022-10-31T02:50:01;19.00;;;12.02;;
48999;SDS011;34808;48.144;17.158;2022-10-31T02:52:31;15.15;;;11.13;;
48999;SDS011;34808;48.144;17.158;2022-10-31T02:54:58;16.02;;;10.73;;
48999;SDS011;34808;48.144;17.158;2022-10-31T02:57:34;16.58;;;11.57;;
48999;SDS011;34808;48.144;17.158;2022-10-31T03:00:03;15.82;;;10.68;;
48999;SDS011;34808;48.144;17.158;2022-10-31T03:08:24;14.13;;;10.13;;
48999;SDS011;34808;48.144;17.158;2022-10-31T03:11:07;13.52;;;10.10;;
48999;SDS011;34808;48.144;17.158;2022-10-31T03:13:34;15.63;;;10.63;;
48999;SDS011;34808;48.144;17.158;2022-10-31T03:16:11;13.95;;;10.30;;
48999;SDS011;34808;48.144;17.158;2022-10-31T03:18:39;14.95;;;10.32;;
48999;SDS011;34808;48.144;17.158;2022-10-31T03:21:10;14.00;;;10.57;;
48999;SDS011;34808;48.144;17.158;2022-10-31T03:23:44;14.40;;;10.38;;
48999;SDS011;34808;48.144;17.158;2022-10-31T03:26:12;12.23;;;10.27;;
48999;SDS011;34808;48.144;17.158;2022-10-31T03:28:41;15.00;;;10.20;;
48999;SDS011;34808;48.144;17.158;2022-10-31T03:31:17;15.93;;;11.10;;
48999;SDS011;34808;48.144;17.158;2022-10-31T03:33:47;13.00;;;9.90;;
48999;SDS011;34808;48.144;17.158;2022-10-31T03:36:15;12.52;;;10.07;;
48999;SDS011;34808;48.144;17.158;2022-10-31T03:38:42;13.38;;;9.95;;
48999;SDS011;34808;48.144;17.158;2022-10-31T03:41:12;14.73;;;9.98;;
48999;SDS011;34808;48.144;17.158;2022-10-31T03:43:42;20.00;;;11.75;;
48999;SDS011;34808;48.144;17.158;2022-10-31T03:46:13;15.68;;;11.40;;
48999;SDS011;34808;48.144;17.158;2022-10-31T03:48:39;14.00;;;10.98;;
48999;SDS011;34808;48.144;17.158;2022-10-31T03:56:13;17.52;;;12.18;;
48999;SDS011;34808;48.144;17.158;2022-10-31T03:58:53;16.13;;;11.38;;
48999;SDS011;34808;48.144;17.158;2022-10-31T04:01:23;22.70;;;12.32;;
48999;SDS011;34808;48.144;17.158;2022-10-31T04:03:51;19.60;;;12.68;;
48999;SDS011;34808;48.144;17.158;2022-10-31T04:06:18;23.80;;;13.07;;
48999;SDS011;34808;48.144;17.158;2022-10-31T04:08:46;18.73;;;12.90;;
48999;SDS011;34808;48.144;17.158;2022-10-31T04:11:16;22.08;;;13.98;;
48999;SDS011;34808;48.144;17.158;2022-10-31T04:13:45;20.98;;;13.43;;
48999;SDS011;34808;48.144;17.158;2022-10-31T04:16:13;21.92;;;14.18;;
48999;SDS011;34808;48.144;17.158;2022-10-31T04:18:40;20.13;;;13.43;;
48999;SDS011;34808;48.144;17.158;2022-10-31T04:21:06;23.15;;;13.63;;
48999;SDS011;34808;48.144;17.158;2022-10-31T04:23:33;19.90;;;13.00;;
48999;SDS011;34808;48.144;17.158;2022-10-31T04:25:59;20.73;;;13.30;;
48999;SDS011;34808;48.144;17.158;2022-10-31T04:28:25;23.23;;;15.68;;
48999;SDS011;34808;48.144;17.158;2022-10-31T04:30:50;20.13;;;13.02;;
48999;SDS011;34808;48.144;17.158;2022-10-31T04:33:16;25.25;;;14.00;;
48999;SDS011;34808;48.144;17.158;2022-10-31T04:35:42;20.08;;;13.10;;
48999;SDS011;34808;48.144;17.158;2022-10-31T04:38:07;25.40;;;14.05;;
48999;SDS011;34808;48.144;17.158;2022-10-31T04:40:33;20.60;;;12.75;;
48999;SDS011;34808;48.144;17.158;2022-10-31T04:42:58;19.58;;;13.55;;
48999;SDS011;34808;48.144;17.158;2022-10-31T04:45:23;22.83;;;14.23;;
48999;SDS011;34808;48.144;17.158;2022-10-31T04:47:49;24.83;;;14.43;;
48999;SDS011;34808;48.144;17.158;2022-10-31T04:50:14;20.20;;;13.93;;
48999;SDS011;34808;48.144;17.158;2022-10-31T04:52:43;24.70;;;14.70;;
48999;SDS011;34808;48.144;17.158;2022-10-31T04:55:10;20.73;;;13.63;;
48999;SDS011;34808;48.144;17.158;2022-10-31T04:57:45;20.92;;;13.80;;
48999;SDS011;34808;48.144;17.158;2022-10-31T05:00:13;22.60;;;13.15;;
48999;SDS011;34808;48.144;17.158;2022-10-31T05:02:47;17.35;;;12.48;;
48999;SDS011;34808;48.144;17.158;2022-10-31T05:05:14;19.67;;;13.38;;
48999;SDS011;34808;48.144;17.158;2022-10-31T05:07:41;18.40;;;13.30;;
48999;SDS011;34808;48.144;17.158;2022-10-31T05:10:07;19.08;;;12.35;;
48999;SDS011;34808;48.144;17.158;2022-10-31T05:12:35;15.40;;;12.65;;
48999;SDS011;34808;48.144;17.158;2022-10-31T05:15:00;21.02;;;12.90;;
48999;SDS011;34808;48.144;17.158;2022-10-31T05:17:26;18.48;;;13.10;;
48999;SDS011;34808;48.144;17.158;2022-10-31T05:19:51;18.15;;;11.75;;
48999;SDS011;34808;48.144;17.158;2022-10-31T05:22:16;20.70;;;12.30;;
48999;SDS011;34808;48.144;17.158;2022-10-31T05:24:42;18.27;;;11.82;;
48999;SDS011;34808;48.144;17.158;2022-10-31T05:27:07;22.17;;;11.55;;
48999;SDS011;34808;48.144;17.158;2022-10-31T05:29:32;16.60;;;11.10;;
48999;SDS011;34808;48.144;17.158;2022-10-31T05:31:58;20.13;;;12.98;;
48999;SDS011;34808;48.144;17.158;2022-10-31T05:34:24;17.50;;;11.55;;
48999;SDS011;34808;48.144;17.158;2022-10-31T05:36:49;19.48;;;11.80;;
48999;SDS011;34808;48.144;17.158;2022-10-31T05:39:14;21.60;;;11.68;;
48999;SDS011;34808;48.144;17.158;2022-10-31T05:41:40;20.58;;;13.20;;
48999;SDS011;34808;48.144;17.158;2022-10-31T05:44:05;22.00;;;12.68;;
48999;SDS011;34808;48.144;17.158;2022-10-31T05:46:30;19.27;;;12.00;;
48999;SDS011;34808;48.144;17.158;2022-10-31T05:48:56;16.13;;;11.30;;
48999;SDS011;34808;48.144;17.158;2022-10-31T05:51:21;16.10;;;11.10;;
48999;SDS011;34808;48.144;17.158;2022-10-31T05:53:46;14.65;;;9.63;;
48999;SDS011;34808;48.144;17.158;2022-10-31T05:56:12;17.48;;;10.20;;
48999;SDS011;34808;48.144;17.158;2022-10-31T05:58:37;19.98;;;11.07;;
48999;SDS011;34808;48.144;17.158;2022-10-31T06:01:03;16.52;;;10.95;;
48999;SDS011;34808;48.144;17.158;2022-10-31T06:03:28;17.08;;;11.07;;
48999;SDS011;34808;48.144;17.158;2022-10-31T06:05:53;13.95;;;9.88;;
48999;SDS011;34808;48.144;17.158;2022-10-31T06:08:19;18.85;;;9.85;;
48999;SDS011;34808;48.144;17.158;2022-10-31T06:10:44;14.85;;;10.63;;
48999;SDS011;34808;48.144;17.158;2022-10-31T06:13:09;15.32;;;9.98;;
48999;SDS011;34808;48.144;17.158;2022-10-31T06:15:35;17.17;;;10.07;;
48999;SDS011;34808;48.144;17.158;2022-10-31T06:18:01;14.80;;;10.05;;
48999;SDS011;34808;48.144;17.158;2022-10-31T06:20:28;14.30;;;9.85;;
48999;SDS011;34808;48.144;17.158;2022-10-31T06:22:54;17.98;;;11.18;;
48999;SDS011;34808;48.144;17.158;2022-10-31T06:25:19;15.80;;;10.30;;
48999;SDS011;34808;48.144;17.158;2022-10-31T06:27:45;15.00;;;10.00;;
48999;SDS011;34808;48.144;17.158;2022-10-31T06:30:10;14.13;;;10.07;;
48999;SDS011;34808;48.144;17.158;2022-10-31T06:32:36;12.48;;;9.85;;
48999;SDS011;34808;48.144;17.158;2022-10-31T06:35:01;11.95;;;9.50;;
48999;SDS011;34808;48.144;17.158;2022-10-31T06:37:26;16.83;;;11.10;;
48999;SDS011;34808;48.144;17.158;2022-10-31T06:39:51;19.60;;;11.85;;
48999;SDS011;34808;48.144;17.158;2022-10-31T06:42:17;17.85;;;10.50;;
48999;SDS011;34808;48.144;17.158;2022-10-31T06:44:42;16.70;;;10.32;;
48999;SDS011;34808;48.144;17.158;2022-10-31T06:47:07;13.43;;;10.20;;
48999;SDS011;34808;48.144;17.158;2022-10-31T06:49:33;18.55;;;11.57;;
48999;SDS011;34808;48.144;17.158;2022-10-31T06:51:59;15.82;;;10.68;;
48999;SDS011;34808;48.144;17.158;2022-10-31T06:54:24;15.95;;;11.38;;
48999;SDS011;34808;48.144;17.158;2022-10-31T06:56:49;14.82;;;10.75;;
48999;SDS011;34808;48.144;17.158;2022-10-31T06:59:15;19.70;;;13.02;;
48999;SDS011;34808;48.144;17.158;2022-10-31T07:01:40;13.75;;;10.40;;
48999;SDS011;34808;48.144;17.158;2022-10-31T07:04:09;17.38;;;12.43;;
48999;SDS011;34808;48.144;17.158;2022-10-31T07:06:35;16.65;;;11.65;;
48999;SDS011;34808;48.144;17.158;2022-10-31T07:09:00;20.63;;;11.38;;
48999;SDS011;34808;48.144;17.158;2022-10-31T07:11:26;21.48;;;14.45;;
48999;SDS011;34808;48.144;17.158;2022-10-31T07:13:51;19.80;;;12.30;;
48999;SDS011;34808;48.144;17.158;2022-10-31T07:16:16;20.58;;;12.57;;
48999;SDS011;34808;48.144;17.158;2022-10-31T07:18:42;18.30;;;12.57;;
48999;SDS011;34808;48.144;17.158;2022-10-31T07:21:07;22.30;;;13.82;;
48999;SDS011;34808;48.144;17.158;2022-10-31T07:23:32;20.45;;;13.00;;
48999;SDS011;34808;48.144;17.158;2022-10-31T07:25:58;17.05;;;12.48;;
48999;SDS011;34808;48.144;17.158;2022-10-31T07:28:25;16.92;;;12.43;;
48999;SDS011;34808;48.144;17.158;2022-10-31T07:30:51;17.13;;;12.13;;
48999;SDS011;34808;48.144;17.158;2022-10-31T07:33:18;19.50;;;12.60;;
48999;SDS011;34808;48.144;17.158;2022-10-31T07:35:46;18.88;;;13.23;;
48999;SDS011;34808;48.144;17.158;2022-10-31T07:38:12;18.23;;;12.43;;
48999;SDS011;34808;48.144;17.158;2022-10-31T07:40:38;16.35;;;12.90;;
48999;SDS011;34808;48.144;17.158;2022-10-31T07:43:04;18.83;;;14.07;;
48999;SDS011;34808;48.144;17.158;2022-10-31T07:45:30;18.15;;;12.63;;
48999;SDS011;34808;48.144;17.158;2022-10-31T07:47:55;17.25;;;12.77;;
48999;SDS011;34808;48.144;17.158;2022-10-31T07:50:30;17.33;;;12.90;;
48999;SDS011;34808;48.144;17.158;2022-10-31T07:53:09;19.23;;;13.23;;
48999;SDS011;34808;48.144;17.158;2022-10-31T07:55:36;21.42;;;13.00;;
48999;SDS011;34808;48.144;17.158;2022-10-31T07:58:03;17.17;;;11.98;;
48999;SDS011;34808;48.144;17.158;2022-10-31T08:00:30;17.13;;;11.98;;
48999;SDS011;34808;48.144;17.158;2022-10-31T08:03:16;18.65;;;13.05;;
48999;SDS011;34808;48.144;17.158;2022-10-31T08:05:43;20.77;;;13.27;;
48999;SDS011;34808;48.144;17.158;2022-10-31T08:08:12;17.95;;;12.20;;
48999;SDS011;34808;48.144;17.158;2022-10-31T08:10:38;19.83;;;13.93;;
48999;SDS011;34808;48.144;17.158;2022-10-31T08:13:06;19.90;;;13.07;;
48999;SDS011;34808;48.144;17.158;2022-10-31T08:15:33;18.08;;;12.15;;
48999;SDS011;34808;48.144;17.158;2022-10-31T08:18:02;14.80;;;11.18;;
48999;SDS011;34808;48.144;17.158;2022-10-31T08:20:27;16.92;;;11.60;;
48999;SDS011;34808;48.144;17.158;2022-10-31T08:22:57;19.10;;;12.35;;
48999;SDS011;34808;48.144;17.158;2022-10-31T08:25:23;17.88;;;12.25;;
48999;SDS011;34808;48.144;17.158;2022-10-31T08:27:53;17.27;;;10.73;;
48999;SDS011;34808;48.144;17.158;2022-10-31T08:30:20;15.75;;;10.77;;
48999;SDS011;34808;48.144;17.158;2022-10-31T08:32:47;15.85;;;11.23;;
48999;SDS011;34808;48.144;17.158;2022-10-31T08:35:21;16.88;;;11.77;;
48999;SDS011;34808;48.144;17.158;2022-10-31T08:37:51;15.55;;;11.48;;
48999;SDS011;34808;48.144;17.158;2022-10-31T08:40:17;15.40;;;11.30;;
48999;SDS011;34808;48.144;17.158;2022-10-31T08:42:42;16.02;;;10.45;;
48999;SDS011;34808;48.144;17.158;2022-10-31T08:45:08;13.65;;;9.70;;
48999;SDS011;34808;48.144;17.158;2022-10-31T08:47:34;15.30;;;10.85;;
48999;SDS011;34808;48.144;17.158;2022-10-31T08:49:59;12.90;;;10.25;;
48999;SDS011;34808;48.144;17.158;2022-10-31T08:52:24;17.30;;;11.70;;
48999;SDS011;34808;48.144;17.158;2022-10-31T08:54:50;13.52;;;11.13;;
48999;SDS011;34808;48.144;17.158;2022-10-31T08:57:15;18.15;;;12.13;;
48999;SDS011;34808;48.144;17.158;2022-10-31T08:59:41;18.80;;;12.80;;
48999;SDS011;34808;48.144;17.158;2022-10-31T09:02:07;15.75;;;12.75;;
48999;SDS011;34808;48.144;17.158;2022-10-31T09:04:32;17.75;;;13.93;;
48999;SDS011;34808;48.144;17.158;2022-10-31T09:06:57;21.80;;;16.38;;
48999;SDS011;34808;48.144;17.158;2022-10-31T09:09:23;19.30;;;15.00;;
48999;SDS011;34808;48.144;17.158;2022-10-31T09:11:48;25.70;;;18.27;;
48999;SDS011;34808;48.144;17.158;2022-10-31T09:14:13;21.23;;;17.30;;
48999;SDS011;34808;48.144;17.158;2022-10-31T09:16:39;24.48;;;20.08;;
48999;SDS011;34808;48.144;17.158;2022-10-31T09:19:04;23.45;;;19.25;;
48999;SDS011;34808;48.144;17.158;2022-10-31T09:21:29;22.98;;;20.35;;
48999;SDS011;34808;48.144;17.158;2022-10-31T09:23:54;21.58;;;19.05;;
48999;SDS011;34808;48.144;17.158;2022-10-31T09:26:21;24.55;;;20.52;;
48999;SDS011;34808;48.144;17.158;2022-10-31T09:28:46;21.90;;;18.20;;
48999;SDS011;34808;48.144;17.158;2022-10-31T09:31:12;22.80;;;18.73;;
48999;SDS011;34808;48.144;17.158;2022-10-31T09:33:37;23.13;;;19.50;;
48999;SDS011;34808;48.144;17.158;2022-10-31T09:36:03;24.33;;;19.25;;
48999;SDS011;34808;48.144;17.158;2022-10-31T09:38:28;23.05;;;20.55;;
48999;SDS011;34808;48.144;17.158;2022-10-31T09:46:01;26.63;;;19.02;;
48999;SDS011;34808;48.144;17.158;2022-10-31T09:51:13;23.40;;;18.40;;
48999;SDS011;34808;48.144;17.158;2022-10-31T09:53:44;26.52;;;20.02;;
48999;SDS011;34808;48.144;17.158;2022-10-31T09:56:17;24.70;;;20.42;;
48999;SDS011;34808;48.144;17.158;2022-10-31T09:58:50;24.13;;;19.05;;
48999;SDS011;34808;48.144;17.158;2022-10-31T10:01:25;30.13;;;20.38;;
48999;SDS011;34808;48.144;17.158;2022-10-31T10:04:01;32.05;;;21.85;;
48999;SDS011;34808;48.144;17.158;2022-10-31T10:06:34;24.85;;;21.25;;
48999;SDS011;34808;48.144;17.158;2022-10-31T10:09:06;27.55;;;21.13;;
48999;SDS011;34808;48.144;17.158;2022-10-31T10:11:45;28.23;;;22.55;;
48999;SDS011;34808;48.144;17.158;2022-10-31T10:23:21;24.70;;;19.58;;
48999;SDS011;34808;48.144;17.158;2022-10-31T10:25:22;24.92;;;22.25;;
48999;SDS011;34808;48.144;17.158;2022-10-31T10:30:39;26.65;;;23.80;;
48999;SDS011;34808;48.144;17.158;2022-10-31T10:33:09;26.35;;;23.70;;
48999;SDS011;34808;48.144;17.158;2022-10-31T10:35:50;28.33;;;25.25;;
48999;SDS011;34808;48.144;17.158;2022-10-31T10:40:48;26.08;;;21.45;;
48999;SDS011;34808;48.144;17.158;2022-10-31T10:48:59;27.33;;;23.08;;
48999;SDS011;34808;48.144;17.158;2022-10-31T10:54:15;30.02;;;24.90;;
48999;SDS011;34808;48.144;17.158;2022-10-31T10:59:51;30.23;;;24.05;;
48999;SDS011;34808;48.144;17.158;2022-10-31T11:04:49;28.75;;;24.63;;
48999;SDS011;34808;48.144;17.158;2022-10-31T11:07:36;29.63;;;24.98;;
48999;SDS011;34808;48.144;17.158;2022-10-31T11:10:03;31.27;;;24.50;;
48999;SDS011;34808;48.144;17.158;2022-10-31T11:12:33;32.20;;;24.48;;
48999;SDS011;34808;48.144;17.158;2022-10-31T11:15:00;31.88;;;25.58;;
48999;SDS011;34808;48.144;17.158;2022-10-31T11:17:39;29.33;;;25.35;;
48999;SDS011;34808;48.144;17.158;2022-10-31T11:22:42;30.73;;;24.60;;
48999;SDS011;34808;48.144;17.158;2022-10-31T11:27:44;33.35;;;25.80;;
48999;SDS011;34808;48.144;17.158;2022-10-31T11:30:09;32.63;;;25.25;;
48999;SDS011;34808;48.144;17.158;2022-10-31T11:32:36;31.38;;;24.40;;
48999;SDS011;34808;48.144;17.158;2022-10-31T11:35:10;34.33;;;27.65;;
48999;SDS011;34808;48.144;17.158;2022-10-31T11:37:44;34.80;;;27.50;;
48999;SDS011;34808;48.144;17.158;2022-10-31T11:40:15;37.33;;;28.27;;
48999;SDS011;34808;48.144;17.158;2022-10-31T11:42:43;33.33;;;27.33;;
48999;SDS011;34808;48.144;17.158;2022-10-31T11:45:27;36.22;;;27.63;;
48999;SDS011;34808;48.144;17.158;2022-10-31T11:47:56;33.00;;;25.85;;
48999;SDS011;34808;48.144;17.158;2022-10-31T11:50:26;28.38;;;24.25;;
48999;SDS011;34808;48.144;17.158;2022-10-31T11:53:01;30.48;;;25.02;;
48999;SDS011;34808;48.144;17.158;2022-10-31T11:55:33;28.02;;;24.30;;
48999;SDS011;34808;48.144;17.158;2022-10-31T11:58:01;27.63;;;23.67;;
48999;SDS011;34808;48.144;17.158;2022-10-31T12:05:58;31.48;;;26.42;;
48999;SDS011;34808;48.144;17.158;2022-10-31T12:08:29;31.33;;;25.75;;
48999;SDS011;34808;48.144;17.158;2022-10-31T12:16:24;31.98;;;26.77;;
48999;SDS011;34808;48.144;17.158;2022-10-31T12:19:04;24.77;;;22.15;;
48999;SDS011;34808;48.144;17.158;2022-10-31T12:24:12;24.70;;;22.10;;
48999;SDS011;34808;48.144;17.158;2022-10-31T12:32:11;20.52;;;16.92;;
48999;SDS011;34808;48.144;17.158;2022-10-31T12:34:58;20.80;;;15.95;;
48999;SDS011;34808;48.144;17.158;2022-10-31T12:37:35;15.95;;;14.32;;
48999;SDS011;34808;48.144;17.158;2022-10-31T12:42:41;24.05;;;15.73;;
48999;SDS011;34808;48.144;17.158;2022-10-31T12:45:30;15.52;;;13.48;;
48999;SDS011;34808;48.144;17.158;2022-10-31T12:48:08;14.35;;;11.75;;
48999;SDS011;34808;48.144;17.158;2022-10-31T12:53:17;11.57;;;10.32;;
48999;SDS011;34808;48.144;17.158;2022-10-31T12:58:32;13.95;;;11.52;;
48999;SDS011;34808;48.144;17.158;2022-10-31T13:01:09;19.55;;;12.93;;
48999;SDS011;34808;48.144;17.158;2022-10-31T13:06:22;24.25;;;19.35;;
48999;SDS011;34808;48.144;17.158;2022-10-31T13:08:53;28.75;;;22.73;;
48999;SDS011;34808;48.144;17.158;2022-10-31T13:11:27;26.80;;;20.55;;
48999;SDS011;34808;48.144;17.158;2022-10-31T13:14:07;26.52;;;19.50;;
48999;SDS011;34808;48.144;17.158;2022-10-31T13:16:35;25.70;;;17.38;;
48999;SDS011;34808;48.144;17.158;2022-10-31T13:19:20;18.02;;;14.45;;
48999;SDS011;34808;48.144;17.158;2022-10-31T13:24:40;16.02;;;13.68;;
48999;SDS011;34808;48.144;17.158;2022-10-31T13:27:15;16.08;;;12.45;;
48999;SDS011;34808;48.144;17.158;2022-10-31T13:29:56;12.95;;;10.50;;
48999;SDS011;34808;48.144;17.158;2022-10-31T13:32:28;14.35;;;9.68;;
48999;SDS011;34808;48.144;17.158;2022-10-31T13:35:03;14.35;;;10.00;;
48999;SDS011;34808;48.144;17.158;2022-10-31T13:37:44;15.02;;;10.85;;
48999;SDS011;34808;48.144;17.158;2022-10-31T13:45:56;13.23;;;10.23;;
48999;SDS011;34808;48.144;17.158;2022-10-31T13:50:58;12.50;;;9.77;;
48999;SDS011;34808;48.144;17.158;2022-10-31T13:53:43;11.32;;;8.43;;
48999;SDS011;34808;48.144;17.158;2022-10-31T13:56:16;11.68;;;9.50;;
48999;SDS011;34808;48.144;17.158;2022-10-31T13:59:05;12.30;;;9.45;;
48999;SDS011;34808;48.144;17.158;2022-10-31T14:01:46;9.60;;;8.35;;
48999;SDS011;34808;48.144;17.158;2022-10-31T14:04:21;10.45;;;8.13;;
48999;SDS011;34808;48.144;17.158;2022-10-31T14:12:21;11.68;;;8.90;;
48999;SDS011;34808;48.144;17.158;2022-10-31T14:15:18;11.75;;;10.05;;
48999;SDS011;34808;48.144;17.158;2022-10-31T14:17:49;12.27;;;10.35;;
48999;SDS011;34808;48.144;17.158;2022-10-31T14:28:50;20.55;;;15.13;;
48999;SDS011;34808;48.144;17.158;2022-10-31T14:31:29;24.70;;;16.17;;
48999;SDS011;34808;48.144;17.158;2022-10-31T14:34:01;24.20;;;15.38;;
48999;SDS011;34808;48.144;17.158;2022-10-31T14:36:36;28.08;;;21.17;;
48999;SDS011;34808;48.144;17.158;2022-10-31T14:39:24;21.75;;;16.10;;
48999;SDS011;34808;48.144;17.158;2022-10-31T14:42:34;26.70;;;17.15;;
48999;SDS011;34808;48.144;17.158;2022-10-31T14:47:58;26.10;;;17.38;;
48999;SDS011;34808;48.144;17.158;2022-10-31T14:50:48;22.73;;;15.77;;
48999;SDS011;34808;48.144;17.158;2022-10-31T14:53:20;27.85;;;18.65;;
48999;SDS011;34808;48.144;17.158;2022-10-31T14:55:49;27.75;;;19.40;;
48999;SDS011;34808;48.144;17.158;2022-10-31T14:58:18;21.92;;;17.52;;
48999;SDS011;34808;48.144;17.158;2022-10-31T15:00:50;16.98;;;12.50;;
48999;SDS011;34808;48.144;17.158;2022-10-31T15:03:33;13.98;;;10.70;;
48999;SDS011;34808;48.144;17.158;2022-10-31T15:06:03;12.30;;;9.35;;
48999;SDS011;34808;48.144;17.158;2022-10-31T15:08:37;10.48;;;9.02;;
48999;SDS011;34808;48.144;17.158;2022-10-31T15:11:15;13.80;;;9.60;;
48999;SDS011;34808;48.144;17.158;2022-10-31T15:13:52;13.18;;;9.07;;
48999;SDS011;34808;48.144;17.158;2022-10-31T15:16:23;11.32;;;9.63;;
48999;SDS011;34808;48.144;17.158;2022-10-31T15:18:55;10.15;;;9.07;;
48999;SDS011;34808;48.144;17.158;2022-10-31T15:21:23;9.77;;;8.63;;
48999;SDS011;34808;48.144;17.158;2022-10-31T15:23:53;10.65;;;8.93;;
48999;SDS011;34808;48.144;17.158;2022-10-31T15:26:22;9.98;;;8.27;;
48999;SDS011;34808;48.144;17.158;2022-10-31T15:29:05;11.15;;;8.93;;
48999;SDS011;34808;48.144;17.158;2022-10-31T15:31:36;10.82;;;7.95;;
48999;SDS011;34808;48.144;17.158;2022-10-31T15:34:14;13.77;;;9.75;;
48999;SDS011;34808;48.144;17.158;2022-10-31T15:36:47;11.48;;;9.23;;
48999;SDS011;34808;48.144;17.158;2022-10-31T15:39:13;14.45;;;11.00;;
48999;SDS011;34808;48.144;17.158;2022-10-31T15:41:52;12.25;;;9.90;;
48999;SDS011;34808;48.144;17.158;2022-10-31T15:44:21;13.40;;;10.23;;
48999;SDS011;34808;48.144;17.158;2022-10-31T15:47:01;13.90;;;9.73;;
48999;SDS011;34808;48.144;17.158;2022-10-31T15:49:30;12.57;;;9.98;;
48999;SDS011;34808;48.144;17.158;2022-10-31T15:51:55;12.98;;;9.93;;
48999;SDS011;34808;48.144;17.158;2022-10-31T15:54:24;16.02;;;11.48;;
48999;SDS011;34808;48.144;17.158;2022-10-31T15:56:50;12.38;;;8.95;;
48999;SDS011;34808;48.144;17.158;2022-10-31T15:59:19;10.13;;;8.50;;
48999;SDS011;34808;48.144;17.158;2022-10-31T16:01:59;14.55;;;10.45;;
48999;SDS011;34808;48.144;17.158;2022-10-31T16:04:34;14.10;;;9.20;;
48999;SDS011;34808;48.144;17.158;2022-10-31T16:07:00;12.55;;;9.27;;
48999;SDS011;34808;48.144;17.158;2022-10-31T16:09:56;14.95;;;11.18;;
48999;SDS011;34808;48.144;17.158;2022-10-31T16:12:23;14.25;;;11.05;;
48999;SDS011;34808;48.144;17.158;2022-10-31T16:14:51;17.30;;;11.05;;
48999;SDS011;34808;48.144;17.158;2022-10-31T16:17:20;19.67;;;11.52;;
48999;SDS011;34808;48.144;17.158;2022-10-31T16:19:51;15.82;;;11.40;;
48999;SDS011;34808;48.144;17.158;2022-10-31T16:22:22;14.80;;;10.48;;
48999;SDS011;34808;48.144;17.158;2022-10-31T16:25:10;13.07;;;10.13;;
48999;SDS011;34808;48.144;17.158;2022-10-31T16:27:37;14.75;;;11.00;;
48999;SDS011;34808;48.144;17.158;2022-10-31T16:30:25;12.95;;;10.25;;
48999;SDS011;34808;48.144;17.158;2022-10-31T16:32:53;12.43;;;10.88;;